Flugplatz Lüneburg

Für EDHG sind keine METAR/TAF Berichte vorhanden.
Es werden die Flugwettermeldungen vom Flugplatz Fassberg Airport in 40 km Entfernung angezeigt.

Bericht für ETHS

vom 31.05. um 10:20 UTC

Wind 12 kt aus 50°

Sichtweite 7000 m

Temperatur 18.0°C

Taupunkt 7.0°C

Luftfeuchtigkeit 49%

Luftdruck 1024 hPa

ETHS 311020Z AUTO 05012KT 7000 // ////// 18/07 Q1024 ///
Keine Prognose (TAF) verfügbar.
Impressum